Time;durP1;ratioP1;P1;durP2;ratioP2;P2;SDS_P1;SDS_P2;PMS_P1;PMS_P2;Temp;Humidity;BMP_temperature;BMP_pressure;BME280_temperature;BME280_humidity;BME280_pressure;Samples;Min_cycle;Max_cycle;Signal;HPM_P1;HPM_P2
2022/04/25 00:00:35;;;;;;;16.02;8.85;;;9.40;99.90;;;;;;5113861;28;20046;-73
2022/04/25 00:03:01;;;;;;;14.18;8.07;;;9.40;99.90;;;;;;5114174;28;20503;-73
2022/04/25 00:05:27;;;;;;;13.85;9.48;;;9.40;99.90;;;;;;5095996;28;20507;-73
2022/04/25 00:07:53;;;;;;;19.67;9.35;;;9.40;99.90;;;;;;5114308;28;20070;-73
2022/04/25 00:10:18;;;;;;;16.27;9.52;;;9.40;99.90;;;;;;5113829;28;20380;-73
2022/04/25 00:12:44;;;;;;;14.93;9.00;;;9.40;99.90;;;;;;5113764;28;20054;-74
2022/04/25 00:15:10;;;;;;;11.73;8.55;;;9.30;99.90;;;;;;5114139;28;20042;-73
2022/04/25 00:17:35;;;;;;;15.40;9.63;;;9.40;99.90;;;;;;5114002;28;20043;-72
2022/04/25 00:20:01;;;;;;;15.40;9.32;;;9.30;99.90;;;;;;5113656;28;20047;-73
2022/04/25 00:22:27;;;;;;;15.57;9.27;;;9.30;99.90;;;;;;5114007;28;20035;-73
2022/04/25 00:24:52;;;;;;;15.85;9.35;;;9.20;99.90;;;;;;5095468;28;20035;-73
2022/04/25 00:27:18;;;;;;;17.23;10.15;;;9.20;99.90;;;;;;5095577;28;20561;-72
2022/04/25 00:29:43;;;;;;;17.02;9.90;;;9.20;99.90;;;;;;5113658;28;20054;-72
2022/04/25 00:32:09;;;;;;;18.60;9.65;;;9.20;99.90;;;;;;5113827;28;20035;-74
2022/04/25 00:34:36;;;;;;;16.13;9.93;;;9.30;99.90;;;;;;5095325;28;20047;-73
2022/04/25 00:37:01;;;;;;;18.17;10.00;;;9.20;99.90;;;;;;5113922;28;20118;-72
2022/04/25 00:39:27;;;;;;;17.85;10.52;;;9.20;99.90;;;;;;5113267;28;20110;-73
2022/04/25 00:41:53;;;;;;;17.27;9.80;;;9.20;99.90;;;;;;5113500;28;20032;-74
2022/04/25 00:44:18;;;;;;;15.88;11.05;;;9.20;99.90;;;;;;5113661;28;20080;-72
2022/04/25 00:46:47;;;;;;;20.42;10.63;;;9.10;99.90;;;;;;5113705;28;20038;-72
2022/04/25 00:49:14;;;;;;;20.90;10.00;;;9.20;99.90;;;;;;5078247;28;20107;-74
2022/04/25 00:51:40;;;;;;;18.70;10.80;;;9.10;99.90;;;;;;5095230;28;20093;-72
2022/04/25 00:54:07;;;;;;;16.50;11.00;;;9.20;99.90;;;;;;5113110;28;20044;-72
2022/04/25 00:56:35;;;;;;;19.27;10.25;;;9.00;99.90;;;;;;5113447;28;20517;-74
2022/04/25 00:59:02;;;;;;;17.80;11.02;;;9.00;99.90;;;;;;5112937;28;20040;-72
2022/04/25 01:01:28;;;;;;;20.23;11.63;;;9.00;99.90;;;;;;5112941;28;20071;-73
2022/04/25 01:03:54;;;;;;;20.65;11.07;;;9.00;99.90;;;;;;5094751;28;20518;-72
2022/04/25 01:06:20;;;;;;;15.35;10.45;;;9.00;99.90;;;;;;5094668;28;20043;-72
2022/04/25 01:08:45;;;;;;;26.15;12.05;;;9.00;99.90;;;;;;5112559;28;20043;-73
2022/04/25 01:11:13;;;;;;;17.02;11.98;;;9.00;99.90;;;;;;5094662;28;20047;-73
2022/04/25 01:13:39;;;;;;;16.88;10.38;;;9.00;99.90;;;;;;5077585;28;20047;-72
2022/04/25 01:16:04;;;;;;;16.60;10.60;;;9.00;99.90;;;;;;5112717;28;20480;-72
2022/04/25 01:18:30;;;;;;;17.13;10.60;;;9.00;99.90;;;;;;5112591;28;20403;-72
2022/04/25 01:20:57;;;;;;;19.20;11.52;;;8.90;99.90;;;;;;5094453;28;20055;-72
2022/04/25 01:28:53;;;;;;;21.75;11.57;;;8.90;99.90;;;;;;5112399;28;20043;-73
2022/04/25 01:31:18;;;;;;;21.25;11.20;;;8.90;99.90;;;;;;5094276;28;20043;-72
2022/04/25 01:33:44;;;;;;;20.73;11.55;;;8.80;99.90;;;;;;5094110;28;20040;-73
2022/04/25 01:36:10;;;;;;;20.08;11.57;;;8.70;99.90;;;;;;5094166;28;20388;-73
2022/04/25 01:38:36;;;;;;;23.27;12.35;;;8.70;99.90;;;;;;5093893;28;20205;-75
2022/04/25 01:41:01;;;;;;;19.23;11.27;;;8.80;99.90;;;;;;5094431;28;20039;-72
2022/04/25 01:43:27;;;;;;;22.55;12.90;;;8.70;99.90;;;;;;5094023;28;20118;-72
2022/04/25 01:45:53;;;;;;;26.98;13.07;;;8.70;99.90;;;;;;5093925;28;20078;-72
2022/04/25 01:48:18;;;;;;;23.45;13.82;;;8.70;99.90;;;;;;5093771;28;20075;-74
2022/04/25 01:50:44;;;;;;;20.30;11.88;;;8.70;99.90;;;;;;5093668;28;20100;-71
2022/04/25 01:53:09;;;;;;;25.30;12.55;;;8.70;99.90;;;;;;5112031;28;20044;-72
2022/04/25 01:55:35;;;;;;;27.20;13.18;;;8.70;99.90;;;;;;5093795;28;20051;-73
2022/04/25 01:58:00;;;;;;;21.20;12.15;;;8.70;99.90;;;;;;5093826;28;20071;-74
2022/04/25 02:00:26;;;;;;;22.83;13.13;;;8.70;99.90;;;;;;5111688;28;20134;-73
2022/04/25 02:02:52;;;;;;;20.77;11.93;;;8.70;99.90;;;;;;5111910;28;20114;-73
2022/04/25 02:05:18;;;;;;;21.33;12.18;;;8.70;99.90;;;;;;5111870;28;20504;-72
2022/04/25 02:07:44;;;;;;;25.15;12.07;;;8.60;99.90;;;;;;5112130;28;20071;-72
2022/04/25 02:10:09;;;;;;;22.13;12.85;;;8.60;99.90;;;;;;5111760;28;20047;-73
2022/04/25 02:12:35;;;;;;;21.60;12.23;;;8.60;99.90;;;;;;5111870;28;20043;-74
2022/04/25 02:15:01;;;;;;;24.35;12.55;;;8.60;99.90;;;;;;5111834;28;20130;-72
2022/04/25 02:17:26;;;;;;;22.35;12.70;;;8.60;99.90;;;;;;5111779;28;20055;-73
2022/04/25 02:19:52;;;;;;;26.98;13.25;;;8.60;99.90;;;;;;5111687;28;20047;-73
2022/04/25 02:22:19;;;;;;;24.02;12.80;;;8.50;99.90;;;;;;5111848;28;20046;-73
2022/04/25 02:24:45;;;;;;;23.08;12.38;;;8.50;99.90;;;;;;5111690;28;20399;-72
2022/04/25 02:27:11;;;;;;;27.65;13.25;;;8.60;99.90;;;;;;5111634;28;20036;-72
2022/04/25 02:29:43;;;;;;;21.83;12.93;;;8.60;99.90;;;;;;5111351;28;20047;-73
2022/04/25 02:32:12;;;;;;;;;;;8.60;99.90;;;;;;5111954;28;20031;-72
2022/04/25 02:34:39;;;;;;;20.90;11.32;;;8.60;99.90;;;;;;5093320;28;20006;-73
2022/04/25 02:37:05;;;;;;;25.95;11.60;;;8.50;99.90;;;;;;5111434;28;20124;-73
2022/04/25 02:39:30;;;;;;;19.27;11.45;;;8.40;99.90;;;;;;5093074;28;20031;-72
2022/04/25 02:41:56;;;;;;;21.90;12.15;;;8.40;99.90;;;;;;5093385;28;20046;-75
2022/04/25 02:44:22;;;;;;;25.38;11.93;;;8.30;99.90;;;;;;5111364;28;20044;-73
2022/04/25 02:46:48;;;;;;;20.42;11.70;;;8.40;99.90;;;;;;5093051;28;20055;-72
2022/04/25 02:49:14;;;;;;;21.13;12.65;;;8.30;99.90;;;;;;5111228;28;20039;-74
2022/04/25 02:51:40;;;;;;;19.67;10.55;;;8.20;99.90;;;;;;5093059;28;20101;-72
2022/04/25 02:54:05;;;;;;;21.55;11.55;;;8.20;99.90;;;;;;5093047;28;20603;-72
2022/04/25 02:56:31;;;;;;;22.25;11.88;;;8.20;99.90;;;;;;5092981;28;20047;-73
2022/04/25 02:58:57;;;;;;;23.35;11.77;;;8.20;99.90;;;;;;5111074;28;20040;-73
2022/04/25 03:01:22;;;;;;;20.50;11.88;;;8.20;99.90;;;;;;5092824;28;20088;-73
2022/04/25 03:03:48;;;;;;;19.98;12.75;;;8.20;99.90;;;;;;5111410;28;20126;-72
2022/04/25 03:06:13;;;;;;;18.17;10.13;;;8.20;99.90;;;;;;5092881;28;20071;-72
2022/04/25 03:08:39;;;;;;;18.52;11.77;;;8.20;99.90;;;;;;5092625;28;20046;-73
2022/04/25 03:11:08;;;;;;;21.58;11.25;;;8.20;99.90;;;;;;5092975;28;20491;-73
2022/04/25 03:13:35;;;;;;;20.83;11.27;;;8.10;99.90;;;;;;5092873;28;20092;-72
2022/04/25 03:16:02;;;;;;;19.10;11.13;;;8.10;99.90;;;;;;5110954;28;20561;-72
2022/04/25 03:18:29;;;;;;;22.10;12.77;;;8.10;99.90;;;;;;5110982;28;20040;-73
2022/04/25 03:20:55;;;;;;;23.80;11.77;;;8.00;99.90;;;;;;5092863;28;20122;-72
2022/04/25 03:23:23;;;;;;;22.33;11.50;;;8.00;99.90;;;;;;5092793;28;20047;-74
2022/04/25 03:25:49;;;;;;;24.77;12.38;;;7.90;99.90;;;;;;5093024;28;20381;-72
2022/04/25 03:28:16;;;;;;;23.95;11.32;;;8.00;99.90;;;;;;5092777;28;20043;-73
2022/04/25 03:30:42;;;;;;;20.58;11.65;;;7.90;99.90;;;;;;5092652;28;20054;-73
2022/04/25 03:33:12;;;;;;;25.45;11.65;;;8.00;99.90;;;;;;5111153;28;20048;-73
2022/04/25 03:35:42;;;;;;;22.77;11.98;;;7.90;99.90;;;;;;5110954;28;20411;-73
2022/04/25 03:38:08;;;;;;;22.40;11.90;;;7.90;99.90;;;;;;5092729;28;20032;-75
2022/04/25 03:40:37;;;;;;;21.67;11.70;;;7.90;99.90;;;;;;5110685;28;20128;-72
2022/04/25 03:43:07;;;;;;;24.50;12.05;;;7.90;99.90;;;;;;5110748;28;20035;-72
2022/04/25 03:45:33;;;;;;;22.60;11.52;;;7.90;99.90;;;;;;5110999;28;20044;-72
2022/04/25 03:47:59;;;;;;;29.63;13.10;;;7.90;99.90;;;;;;5094881;28;20050;-73
2022/04/25 03:50:24;;;;;;;24.05;11.50;;;8.00;99.90;;;;;;5096016;28;20043;-72
2022/04/25 03:52:50;;;;;;;24.35;12.20;;;7.90;99.90;;;;;;5114464;28;20048;-72
2022/04/25 03:58:04;;;;;;;23.10;12.32;;;7.80;99.90;;;;;;5114545;28;20490;-74
2022/04/25 04:00:30;;;;;;;21.40;11.73;;;7.90;99.90;;;;;;5095656;28;20492;-73
2022/04/25 04:02:58;;;;;;;27.60;13.13;;;7.90;99.90;;;;;;5096078;28;20048;-73
2022/04/25 04:05:24;;;;;;;17.20;10.27;;;7.90;99.90;;;;;;5096178;28;20407;-74
2022/04/25 04:07:51;;;;;;;22.15;12.18;;;7.90;99.90;;;;;;5078983;28;20095;-73
2022/04/25 04:10:18;;;;;;;23.33;11.85;;;7.90;99.90;;;;;;5095586;28;20051;-73
2022/04/25 04:12:46;;;;;;;21.17;11.15;;;7.90;99.90;;;;;;5096090;28;20044;-73
2022/04/25 04:15:13;;;;;;;23.88;11.82;;;7.90;99.90;;;;;;5095768;28;20256;-73
2022/04/25 04:17:38;;;;;;;23.25;11.88;;;8.00;99.90;;;;;;5095991;28;20066;-73
2022/04/25 04:20:05;;;;;;;21.92;12.05;;;8.00;99.90;;;;;;5113784;28;20039;-74
2022/04/25 04:22:31;;;;;;;24.30;12.98;;;7.90;99.90;;;;;;5112926;28;20034;-74
2022/04/25 04:25:08;;;;;;;26.15;12.05;;;7.90;99.90;;;;;;5110800;28;20047;-73
2022/04/25 04:27:34;;;;;;;21.40;12.15;;;7.90;99.90;;;;;;5092910;28;20395;-74
2022/04/25 04:30:06;;;;;;;24.33;11.93;;;7.80;99.90;;;;;;5093734;28;20032;-73
2022/04/25 04:32:32;;;;;;;25.17;12.48;;;7.80;99.90;;;;;;5095672;28;20044;-73
2022/04/25 04:34:58;;;;;;;23.77;11.25;;;7.80;99.90;;;;;;5113050;28;20042;-73
2022/04/25 04:37:25;;;;;;;22.63;12.60;;;7.80;99.90;;;;;;5094245;28;20043;-72
2022/04/25 04:40:27;;;;;;;21.55;11.07;;;7.90;99.90;;;;;;5112110;28;20036;-74
2022/04/25 04:42:37;;;;;;;22.00;11.07;;;7.90;99.90;;;;;;5112152;28;20043;-73
2022/04/25 04:45:02;;;;;;;25.38;11.88;;;7.80;99.90;;;;;;5113457;28;20038;-73
2022/04/25 04:47:31;;;;;;;20.35;10.50;;;7.80;99.90;;;;;;5095073;28;20169;-73
2022/04/25 04:49:56;;;;;;;23.33;11.48;;;7.80;99.90;;;;;;5094824;28;20051;-73
2022/04/25 04:52:22;;;;;;;23.10;11.40;;;7.90;99.90;;;;;;5113598;28;20407;-72
2022/04/25 04:54:47;;;;;;;23.23;10.98;;;7.90;99.90;;;;;;5113273;28;20400;-73
2022/04/25 04:57:13;;;;;;;21.20;11.20;;;7.80;99.90;;;;;;5113332;28;20035;-74
2022/04/25 04:59:38;;;;;;;20.73;12.18;;;7.90;99.90;;;;;;5093660;28;20035;-73
2022/04/25 05:02:05;;;;;;;21.10;11.60;;;7.90;99.90;;;;;;5113307;28;20501;-73
2022/04/25 05:04:31;;;;;;;23.27;12.63;;;8.00;99.90;;;;;;5094954;28;20032;-73
2022/04/25 05:06:56;;;;;;;17.75;10.77;;;7.90;99.90;;;;;;5113362;28;20042;-73
2022/04/25 05:09:22;;;;;;;23.10;11.20;;;7.90;99.90;;;;;;5112908;28;20074;-72
2022/04/25 05:11:47;;;;;;;18.85;11.43;;;8.00;99.90;;;;;;5113107;28;20057;-73
2022/04/25 05:14:14;;;;;;;19.00;10.55;;;8.00;99.90;;;;;;5112917;28;20145;-73
2022/04/25 05:16:40;;;;;;;21.50;10.25;;;7.90;99.90;;;;;;5094691;28;20062;-73
2022/04/25 05:19:05;;;;;;;21.10;11.15;;;7.90;99.90;;;;;;5094323;28;20036;-73
2022/04/25 05:21:31;;;;;;;22.98;12.77;;;8.10;99.90;;;;;;5112939;28;20508;-73
2022/04/25 05:23:57;;;;;;;22.20;10.48;;;8.10;99.90;;;;;;5094465;28;20066;-72
2022/04/25 05:26:23;;;;;;;22.80;10.95;;;8.00;99.90;;;;;;5077754;28;20496;-72
2022/04/25 05:28:49;;;;;;;20.73;10.82;;;8.10;99.90;;;;;;5094064;28;20055;-72
2022/04/25 05:31:14;;;;;;;25.73;11.40;;;8.00;99.90;;;;;;5094546;28;20046;-73
2022/04/25 05:33:40;;;;;;;22.23;10.95;;;8.00;99.90;;;;;;5112713;28;20043;-75
2022/04/25 05:36:05;;;;;;;22.92;11.43;;;8.00;99.90;;;;;;5094196;28;20032;-72
2022/04/25 05:38:31;;;;;;;16.33;9.75;;;8.00;99.90;;;;;;5093883;28;20075;-72
2022/04/25 05:40:57;;;;;;;20.08;10.85;;;8.00;99.90;;;;;;5112503;28;20110;-73
2022/04/25 05:43:23;;;;;;;18.42;10.02;;;7.90;99.90;;;;;;5094265;28;20065;-73
2022/04/25 05:45:48;;;;;;;19.42;10.02;;;7.90;99.90;;;;;;5093886;28;20047;-72
2022/04/25 05:53:43;;;;;;;22.50;11.07;;;8.00;99.90;;;;;;5112134;28;20407;-73
2022/04/25 05:56:08;;;;;;;17.75;9.40;;;8.10;99.90;;;;;;5112021;28;20044;-74
2022/04/25 05:58:34;;;;;;;20.88;10.65;;;8.00;99.90;;;;;;5093728;28;20039;-72
2022/04/25 06:00:59;;;;;;;20.67;10.98;;;8.10;99.90;;;;;;5112061;28;20031;-72
2022/04/25 06:03:25;;;;;;;20.52;9.98;;;8.10;99.90;;;;;;5111999;28;20035;-73
2022/04/25 06:05:53;;;;;;;29.80;11.27;;;8.10;99.90;;;;;;5076984;28;20085;-74
2022/04/25 06:08:19;;;;;;;17.02;9.90;;;8.10;99.90;;;;;;5094054;28;20047;-73
2022/04/25 06:10:44;;;;;;;18.70;10.43;;;8.10;99.90;;;;;;5093592;28;20041;-73
2022/04/25 06:13:10;;;;;;;24.23;10.10;;;8.10;99.90;;;;;;5093845;28;20120;-73
2022/04/25 06:15:35;;;;;;;14.98;9.75;;;8.10;99.90;;;;;;5112375;28;20032;-73
2022/04/25 06:18:01;;;;;;;20.00;9.95;;;8.10;99.90;;;;;;5095023;28;20031;-73
2022/04/25 06:20:30;;;;;;;19.88;10.68;;;8.20;99.90;;;;;;5094609;28;20070;-72
2022/04/25 06:22:59;;;;;;;26.40;11.30;;;8.20;99.90;;;;;;5094308;28;20094;-73
2022/04/25 06:25:27;;;;;;;23.92;11.15;;;8.30;99.90;;;;;;5112439;28;20047;-72
2022/04/25 06:27:53;;;;;;;19.80;10.50;;;8.20;99.90;;;;;;5094050;28;20127;-73
2022/04/25 06:30:23;;;;;;;17.02;10.82;;;8.30;99.90;;;;;;5112025;28;20039;-73
2022/04/25 06:32:49;;;;;;;19.42;10.43;;;8.30;99.90;;;;;;5111669;28;20107;-73
2022/04/25 06:35:15;;;;;;;19.58;10.77;;;8.30;99.90;;;;;;5111580;28;20047;-72
2022/04/25 06:37:41;;;;;;;22.90;11.65;;;8.40;99.90;;;;;;5111529;28;20040;-72
2022/04/25 06:40:07;;;;;;;22.02;12.48;;;8.40;99.90;;;;;;5111084;28;20042;-73
2022/04/25 06:42:33;;;;;;;21.33;11.30;;;8.40;99.90;;;;;;5111639;28;20411;-72
2022/04/25 06:44:58;;;;;;;23.33;11.68;;;8.40;99.90;;;;;;5111413;28;20043;-73
2022/04/25 06:47:24;;;;;;;24.40;11.65;;;8.40;99.90;;;;;;5111494;28;20040;-73
2022/04/25 06:49:49;;;;;;;27.70;13.27;;;8.50;99.90;;;;;;5111116;28;20032;-73
2022/04/25 06:52:15;;;;;;;27.23;12.93;;;8.40;99.90;;;;;;5111306;28;20119;-72
2022/04/25 06:54:41;;;;;;;24.75;12.60;;;8.40;99.90;;;;;;5111051;28;20078;-73
2022/04/25 06:57:06;;;;;;;26.58;13.75;;;8.40;99.90;;;;;;5111367;28;20040;-73
2022/04/25 06:59:32;;;;;;;23.15;12.55;;;8.40;99.90;;;;;;5110746;28;20040;-73
2022/04/25 07:01:57;;;;;;;26.35;13.25;;;8.40;99.90;;;;;;5092907;28;20038;-72
2022/04/25 07:04:23;;;;;;;24.45;12.35;;;8.40;99.90;;;;;;5093127;28;20074;-72
2022/04/25 07:06:49;;;;;;;27.05;12.25;;;8.50;99.90;;;;;;5092920;28;20136;-73
2022/04/25 07:09:15;;;;;;;26.00;12.50;;;8.50;99.90;;;;;;5092482;28;20035;-73
2022/04/25 07:11:43;;;;;;;21.15;11.50;;;8.40;99.90;;;;;;5111057;28;20510;-73
2022/04/25 07:14:11;;;;;;;28.52;13.05;;;8.40;99.90;;;;;;5092882;28;20047;-72
2022/04/25 07:16:36;;;;;;;23.73;12.60;;;8.40;99.90;;;;;;5111266;28;20036;-76
2022/04/25 07:19:02;;;;;;;23.52;11.88;;;8.40;99.90;;;;;;5110924;28;20095;-73
2022/04/25 07:29:41;;;;;;;26.15;12.75;;;8.40;99.90;;;;;;5114769;28;20039;-73
2022/04/25 07:32:07;;;;;;;21.65;11.60;;;8.50;99.90;;;;;;5114882;28;20054;-73
2022/04/25 07:34:32;;;;;;;21.88;13.07;;;8.40;99.90;;;;;;5114858;28;20035;-73
2022/04/25 07:36:58;;;;;;;21.85;13.50;;;8.40;99.90;;;;;;5114822;28;20088;-72
2022/04/25 07:39:23;;;;;;;22.50;13.27;;;8.40;99.90;;;;;;5114788;28;20040;-72
2022/04/25 07:41:50;;;;;;;29.45;14.10;;;8.40;99.90;;;;;;5096743;28;20051;-73
2022/04/25 07:44:16;;;;;;;28.05;14.60;;;8.40;99.90;;;;;;5114704;28;20506;-73
2022/04/25 07:46:42;;;;;;;32.33;14.50;;;8.30;99.90;;;;;;5114757;28;20048;-73
2022/04/25 07:49:09;;;;;;;22.20;12.40;;;8.20;99.90;;;;;;5114743;28;20062;-73
2022/04/25 07:51:35;;;;;;;31.48;15.43;;;8.20;99.90;;;;;;5096456;28;20054;-72
2022/04/25 07:54:04;;;;;;;30.08;14.38;;;8.30;99.90;;;;;;5098905;28;20044;-74
2022/04/25 07:56:31;;;;;;;28.80;13.68;;;8.20;99.90;;;;;;5102522;28;20399;-73
2022/04/25 07:58:58;;;;;;;27.13;13.23;;;8.20;99.90;;;;;;5100445;28;20086;-73
2022/04/25 08:01:23;;;;;;;26.30;13.45;;;8.10;99.90;;;;;;5096932;28;20118;-74
2022/04/25 08:03:49;;;;;;;22.85;13.50;;;8.10;99.90;;;;;;5097112;28;20482;-72
2022/04/25 08:06:15;;;;;;;21.83;13.15;;;8.20;99.90;;;;;;5098082;28;20048;-72
2022/04/25 08:08:42;;;;;;;26.95;15.10;;;8.20;99.90;;;;;;5116696;28;20047;-72
2022/04/25 08:11:07;;;;;;;24.65;13.63;;;8.20;99.90;;;;;;5096340;28;20048;-75
2022/04/25 08:19:01;;;;;;;22.92;12.50;;;8.20;99.90;;;;;;5095465;28;20697;-73
2022/04/25 08:21:27;;;;;;;25.60;12.65;;;8.20;99.90;;;;;;5078947;28;20131;-73
2022/04/25 08:23:52;;;;;;;26.08;13.23;;;8.20;99.90;;;;;;5095762;28;20044;-69
2022/04/25 08:26:19;;;;;;;26.15;14.23;;;8.20;99.90;;;;;;5103116;28;20066;-75
2022/04/25 08:28:45;;;;;;;26.10;15.13;;;8.30;99.90;;;;;;5074125;28;20047;-73
2022/04/25 08:31:10;;;;;;;27.63;14.23;;;8.20;99.90;;;;;;5092406;28;20043;-73
2022/04/25 08:33:36;;;;;;;20.65;13.40;;;8.20;99.90;;;;;;5092123;28;20123;-73
2022/04/25 08:36:03;;;;;;;25.23;13.32;;;8.20;99.90;;;;;;5057326;28;20043;-73
2022/04/25 08:38:29;;;;;;;25.77;12.40;;;8.20;99.90;;;;;;5073902;28;20105;-74
2022/04/25 08:40:55;;;;;;;25.08;13.23;;;8.20;99.90;;;;;;5073951;28;20071;-74
2022/04/25 08:43:22;;;;;;;33.50;15.25;;;8.20;99.90;;;;;;5075003;28;20048;-73
2022/04/25 08:45:49;;;;;;;29.08;15.30;;;8.20;99.90;;;;;;5075006;28;20130;-73
2022/04/25 08:48:15;;;;;;;27.25;13.70;;;8.20;99.90;;;;;;5074916;28;20052;-72
2022/04/25 08:50:41;;;;;;;27.35;15.23;;;8.30;99.90;;;;;;5092831;28;20168;-75
2022/04/25 08:53:08;;;;;;;28.20;12.57;;;8.20;99.90;;;;;;5074748;28;20048;-74
2022/04/25 08:55:33;;;;;;;26.77;12.95;;;8.20;99.90;;;;;;5074907;28;20040;-72
2022/04/25 08:58:00;;;;;;;26.52;13.77;;;8.30;99.90;;;;;;5092958;28;20081;-73
2022/04/25 09:00:25;;;;;;;32.08;16.02;;;8.30;99.90;;;;;;5092614;28;20415;-72
2022/04/25 09:02:52;;;;;;;23.25;12.75;;;8.30;99.90;;;;;;5074929;28;20040;-73
2022/04/25 09:05:18;;;;;;;28.85;12.90;;;8.30;99.90;;;;;;5074485;28;20066;-73
2022/04/25 09:07:44;;;;;;;24.95;12.07;;;8.30;99.90;;;;;;5074671;28;20121;-73
2022/04/25 09:10:16;;;;;;;25.10;12.85;;;8.30;99.90;;;;;;5092363;28;20385;-73
2022/04/25 09:12:46;;;;;;;27.23;13.45;;;8.30;99.90;;;;;;5074378;28;20087;-73
2022/04/25 09:15:15;;;;;;;26.55;14.77;;;8.30;99.90;;;;;;5074622;28;20470;-73
2022/04/25 09:17:41;;;;;;;23.23;12.73;;;8.40;99.90;;;;;;5092636;28;20042;-73
2022/04/25 09:20:08;;;;;;;27.10;15.63;;;8.40;99.90;;;;;;5092327;28;20036;-73
2022/04/25 09:22:39;;;;;;;27.70;13.18;;;8.40;99.90;;;;;;5074351;28;20524;-73
2022/04/25 09:25:11;;;;;;;21.98;11.98;;;8.40;99.90;;;;;;5092697;28;20081;-73
2022/04/25 09:27:37;;;;;;;23.15;12.05;;;8.50;99.90;;;;;;5074371;28;20047;-73
2022/04/25 09:30:22;;;;;;;27.27;13.77;;;8.50;99.90;;;;;;5073851;28;20491;-73
2022/04/25 09:32:50;;;;;;;25.48;11.98;;;8.50;99.90;;;;;;5074146;28;20113;-73
2022/04/25 09:35:35;;;;;;;24.45;12.55;;;8.50;99.90;;;;;;5074103;28;20089;-74
2022/04/25 09:38:03;;;;;;;21.67;12.40;;;8.60;99.90;;;;;;5074000;28;20492;-72
2022/04/25 09:40:31;;;;;;;20.90;12.07;;;8.60;99.90;;;;;;5074105;28;20119;-72
2022/04/25 09:43:11;;;;;;;21.45;12.40;;;8.60;99.90;;;;;;5073945;28;20048;-72
2022/04/25 09:45:40;;;;;;;23.50;11.90;;;8.70;99.90;;;;;;5091325;28;20043;-71
2022/04/25 09:48:12;;;;;;;21.77;11.35;;;8.70;99.90;;;;;;5092094;28;20119;-72
2022/04/25 09:50:38;;;;;;;23.67;11.55;;;8.70;99.90;;;;;;5073455;28;20059;-72
2022/04/25 09:53:05;;;;;;;16.85;11.27;;;8.80;99.90;;;;;;5091795;28;20074;-72
2022/04/25 09:55:36;;;;;;;21.15;10.18;;;8.80;99.90;;;;;;5073548;28;20047;-72
2022/04/25 09:58:20;;;;;;;16.45;9.30;;;8.80;99.90;;;;;;5091701;28;20123;-72
2022/04/25 10:00:47;;;;;;;16.75;9.68;;;8.80;99.90;;;;;;5073289;28;20035;-72
2022/04/25 10:03:15;;;;;;;16.70;9.20;;;8.80;99.90;;;;;;5073467;28;20122;-73
2022/04/25 10:05:46;;;;;;;18.45;10.43;;;8.70;99.90;;;;;;5073685;28;20450;-72
2022/04/25 10:08:14;;;;;;;15.77;9.70;;;8.70;99.90;;;;;;5091512;28;20078;-72
2022/04/25 10:10:45;;;;;;;16.55;9.70;;;8.80;99.90;;;;;;5073169;28;20040;-72
2022/04/25 10:13:10;;;;;;;17.38;9.68;;;8.70;99.90;;;;;;5073546;28;20219;-72
2022/04/25 10:15:38;;;;;;;18.35;9.55;;;8.80;99.90;;;;;;5056445;28;20071;-72
2022/04/25 10:18:05;;;;;;;14.82;9.40;;;8.80;99.90;;;;;;5091490;28;20028;-72
2022/04/25 10:20:34;;;;;;;14.38;9.50;;;8.80;99.90;;;;;;5072932;28;20044;-74
2022/04/25 10:23:02;;;;;;;15.32;9.30;;;8.80;99.90;;;;;;5073186;28;20071;-72
2022/04/25 10:25:27;;;;;;;17.65;9.68;;;8.90;99.90;;;;;;5056408;28;20126;-72
2022/04/25 10:27:53;;;;;;;13.95;9.27;;;8.90;99.90;;;;;;5073143;28;20075;-73
2022/04/25 10:30:20;;;;;;;19.50;9.70;;;8.90;99.90;;;;;;5072824;28;20044;-73
2022/04/25 10:32:46;;;;;;;17.75;9.25;;;8.90;99.90;;;;;;5073069;28;20036;-72
2022/04/25 10:35:32;;;;;;;14.52;9.45;;;8.90;99.90;;;;;;5091119;28;20058;-73
2022/04/25 10:37:58;;;;;;;15.05;9.77;;;9.00;99.90;;;;;;5073185;28;20036;-72
2022/04/25 10:46:13;;;;;;;16.50;8.77;;;9.00;99.90;;;;;;5073153;28;19924;-72
2022/04/25 10:49:05;;;;;;;20.02;9.95;;;9.00;99.90;;;;;;5072623;28;20044;-72
2022/04/25 10:51:38;;;;;;;15.02;9.23;;;9.00;99.90;;;;;;5091096;28;20039;-72
2022/04/25 10:54:05;;;;;;;18.52;9.85;;;9.10;99.90;;;;;;5090758;28;20482;-73
2022/04/25 10:56:32;;;;;;;13.00;9.32;;;9.10;99.90;;;;;;5091227;28;20035;-72
2022/04/25 10:59:20;;;;;;;21.52;9.77;;;9.20;99.90;;;;;;5076683;28;20069;-73
2022/04/25 11:01:47;;;;;;;21.63;10.23;;;9.30;99.90;;;;;;5077128;28;20118;-73
2022/04/25 11:04:17;;;;;;;17.63;10.00;;;9.40;99.90;;;;;;5095036;28;20122;-72
2022/04/25 11:06:43;;;;;;;19.60;10.63;;;9.50;99.90;;;;;;5094982;28;20040;-72
2022/04/25 11:09:08;;;;;;;15.80;10.05;;;9.50;99.90;;;;;;5094672;28;20573;-73
2022/04/25 11:11:51;;;;;;;18.42;11.30;;;9.50;99.90;;;;;;5077106;28;20104;-73
2022/04/25 11:14:17;;;;;;;17.13;11.18;;;9.60;99.90;;;;;;5094891;28;20416;-72
2022/04/25 11:17:03;;;;;;;23.60;11.10;;;9.60;99.90;;;;;;5094841;28;20044;-73
2022/04/25 11:19:45;;;;;;;22.02;11.82;;;9.70;99.90;;;;;;5076258;28;20043;-73
2022/04/25 11:22:35;;;;;;;18.48;11.43;;;9.80;99.90;;;;;;5095001;28;20036;-72
2022/04/25 11:25:22;;;;;;;17.85;10.20;;;9.70;99.90;;;;;;5094619;28;20044;-72
2022/04/25 11:28:01;;;;;;;19.08;10.82;;;9.80;99.90;;;;;;5094574;28;20062;-72
2022/04/25 11:30:27;;;;;;;23.08;11.35;;;9.80;99.90;;;;;;5094489;28;20416;-72
2022/04/25 11:32:52;;;;;;;17.48;10.60;;;9.80;99.90;;;;;;5094651;28;20043;-72
2022/04/25 11:35:23;;;;;;;17.35;10.30;;;9.80;99.90;;;;;;5094395;28;20105;-72
2022/04/25 11:37:48;;;;;;;19.00;10.77;;;9.70;99.90;;;;;;5094557;28;20039;-72
2022/04/25 11:40:20;;;;;;;17.85;10.23;;;9.70;99.90;;;;;;5094076;28;20626;-72
2022/04/25 11:42:45;;;;;;;13.57;9.23;;;9.70;99.90;;;;;;5094565;28;20403;-73
2022/04/25 11:45:11;;;;;;;17.83;9.52;;;9.70;99.90;;;;;;5094351;28;20046;-73
2022/04/25 11:47:37;;;;;;;14.77;8.40;;;9.70;99.90;;;;;;5076357;28;20474;-72
2022/04/25 11:50:05;;;;;;;15.90;8.73;;;9.70;99.90;;;;;;5076061;28;20036;-72
2022/04/25 11:52:30;;;;;;;14.60;8.63;;;9.70;99.90;;;;;;5076001;28;20036;-72
2022/04/25 11:54:57;;;;;;;12.70;8.43;;;9.80;99.90;;;;;;5075874;28;20051;-72
2022/04/25 11:57:23;;;;;;;14.65;9.23;;;9.80;99.90;;;;;;5076196;28;20475;-72
2022/04/25 12:00:04;;;;;;;14.43;8.57;;;9.90;99.90;;;;;;5075895;28;20040;-72
2022/04/25 12:02:39;;;;;;;16.13;9.65;;;9.90;99.90;;;;;;5075796;28;20029;-74
2022/04/25 12:05:07;;;;;;;14.32;8.05;;;10.00;99.90;;;;;;5093931;28;20071;-72
2022/04/25 12:07:34;;;;;;;14.45;8.25;;;9.90;99.90;;;;;;5075365;28;20094;-72
2022/04/25 12:15:38;;;;;;;16.13;8.90;;;10.10;99.90;;;;;;5093593;28;20044;-72
2022/04/25 12:18:21;;;;;;;15.88;9.10;;;10.10;99.90;;;;;;5093862;28;20680;-72
2022/04/25 12:21:06;;;;;;;14.50;8.07;;;10.10;99.90;;;;;;5075306;28;20054;-72
2022/04/25 12:23:34;;;;;;;16.02;8.25;;;10.10;99.90;;;;;;5075377;28;20520;-72
2022/04/25 12:26:06;;;;;;;15.75;9.38;;;10.20;99.90;;;;;;5075286;28;20051;-71
2022/04/25 12:28:37;;;;;;;17.73;9.43;;;10.30;99.90;;;;;;5075295;28;20083;-72
2022/04/25 12:31:10;;;;;;;14.15;8.35;;;10.30;99.90;;;;;;5093555;28;20441;-72
2022/04/25 12:33:42;;;;;;;15.20;9.38;;;10.40;99.90;;;;;;5058575;28;20109;-72
2022/04/25 12:36:20;;;;;;;16.75;10.32;;;10.40;99.90;;;;;;5093297;28;20036;-72
2022/04/25 12:38:59;;;;;;;19.02;9.68;;;10.40;99.90;;;;;;5093325;28;20036;-72
2022/04/25 12:41:32;;;;;;;18.83;10.00;;;10.50;99.90;;;;;;5093262;28;20123;-72
2022/04/25 12:44:11;;;;;;;17.13;9.57;;;10.40;99.90;;;;;;5093193;28;20043;-72
2022/04/25 12:47:00;;;;;;;18.20;10.07;;;10.40;99.90;;;;;;5093175;28;20039;-74
2022/04/25 12:49:35;;;;;;;17.45;9.70;;;10.40;99.90;;;;;;5093083;28;20040;-72
2022/04/25 12:52:04;;;;;;;18.52;9.98;;;10.40;99.90;;;;;;5093035;28;20127;-72
2022/04/25 12:54:31;;;;;;;16.48;9.52;;;10.40;99.90;;;;;;5092975;28;20468;-72
2022/04/25 12:57:16;;;;;;;19.48;10.05;;;10.40;99.90;;;;;;5092741;28;20551;-73
2022/04/25 12:59:52;;;;;;;16.67;10.80;;;10.40;99.90;;;;;;5092648;28;20047;-73
2022/04/25 13:02:18;;;;;;;17.73;10.65;;;10.50;99.90;;;;;;5092997;28;20107;-72
2022/04/25 13:04:55;;;;;;;20.40;10.60;;;10.50;99.90;;;;;;5092814;28;20044;-72
2022/04/25 13:07:28;;;;;;;23.05;11.30;;;10.50;99.90;;;;;;5092851;28;20044;-73
2022/04/25 13:09:56;;;;;;;21.25;11.50;;;10.50;99.90;;;;;;5074626;28;20085;-72
2022/04/25 13:12:23;;;;;;;17.30;11.43;;;10.50;99.90;;;;;;5074683;28;20454;-73
2022/04/25 13:14:49;;;;;;;20.48;11.73;;;10.50;99.90;;;;;;5092530;28;20042;-74
2022/04/25 13:17:15;;;;;;;17.63;10.63;;;10.50;99.90;;;;;;5092717;28;20123;-74
2022/04/25 13:19:41;;;;;;;15.35;11.02;;;10.50;99.90;;;;;;5091562;28;20036;-72